sensor_id;sensor_type;location;lat;lon;timestamp;temperature;humidity
21570;DHT22;57598;50.888;4.746;2023-04-24T00:02:07;10.10;99.90
21570;DHT22;57598;50.888;4.746;2023-04-24T00:04:36;10.10;99.90
21570;DHT22;57598;50.888;4.746;2023-04-24T00:07:07;10.10;99.90
21570;DHT22;57598;50.888;4.746;2023-04-24T00:09:34;10.10;99.90
21570;DHT22;57598;50.888;4.746;2023-04-24T00:12:01;10.10;99.90
21570;DHT22;57598;50.888;4.746;2023-04-24T00:14:30;10.10;99.90
21570;DHT22;57598;50.888;4.746;2023-04-24T00:16:57;10.10;99.90
21570;DHT22;57598;50.888;4.746;2023-04-24T00:19:24;10.10;99.90
21570;DHT22;57598;50.888;4.746;2023-04-24T00:21:51;10.10;99.90
21570;DHT22;57598;50.888;4.746;2023-04-24T00:24:19;10.10;99.90
21570;DHT22;57598;50.888;4.746;2023-04-24T00:26:47;10.10;99.90
21570;DHT22;57598;50.888;4.746;2023-04-24T00:29:14;10.10;99.90
21570;DHT22;57598;50.888;4.746;2023-04-24T00:31:41;10.10;99.90
21570;DHT22;57598;50.888;4.746;2023-04-24T00:34:08;10.10;99.90
21570;DHT22;57598;50.888;4.746;2023-04-24T00:36:36;10.10;99.90
21570;DHT22;57598;50.888;4.746;2023-04-24T00:39:03;10.10;99.90
21570;DHT22;57598;50.888;4.746;2023-04-24T00:41:31;10.10;99.90
21570;DHT22;57598;50.888;4.746;2023-04-24T00:43:58;10.10;99.90
21570;DHT22;57598;50.888;4.746;2023-04-24T00:46:25;10.10;99.90
21570;DHT22;57598;50.888;4.746;2023-04-24T00:48:52;10.10;99.90
21570;DHT22;57598;50.888;4.746;2023-04-24T00:51:19;9.90;99.90
21570;DHT22;57598;50.888;4.746;2023-04-24T00:53:46;9.70;99.90
21570;DHT22;57598;50.888;4.746;2023-04-24T00:56:13;9.60;99.90
21570;DHT22;57598;50.888;4.746;2023-04-24T00:58:42;9.60;99.90
21570;DHT22;57598;50.888;4.746;2023-04-24T02:17:35;9.20;99.90
21570;DHT22;57598;50.888;4.746;2023-04-24T02:20:02;9.20;99.90
21570;DHT22;57598;50.888;4.746;2023-04-24T02:22:30;9.20;99.90
21570;DHT22;57598;50.888;4.746;2023-04-24T02:24:57;9.20;99.90
21570;DHT22;57598;50.888;4.746;2023-04-24T02:27:24;9.20;99.90
21570;DHT22;57598;50.888;4.746;2023-04-24T02:29:51;9.20;99.90
21570;DHT22;57598;50.888;4.746;2023-04-24T02:32:18;9.10;99.90
21570;DHT22;57598;50.888;4.746;2023-04-24T02:34:46;9.10;99.90
21570;DHT22;57598;50.888;4.746;2023-04-24T02:37:13;9.10;99.90
21570;DHT22;57598;50.888;4.746;2023-04-24T02:39:40;9.10;99.90
21570;DHT22;57598;50.888;4.746;2023-04-24T02:42:07;9.10;99.90
21570;DHT22;57598;50.888;4.746;2023-04-24T02:44:35;9.10;99.90
21570;DHT22;57598;50.888;4.746;2023-04-24T02:47:02;9.10;99.90
21570;DHT22;57598;50.888;4.746;2023-04-24T02:49:29;9.10;99.90
21570;DHT22;57598;50.888;4.746;2023-04-24T02:51:57;9.10;99.90
21570;DHT22;57598;50.888;4.746;2023-04-24T02:54:24;9.10;99.90
21570;DHT22;57598;50.888;4.746;2023-04-24T02:56:51;9.10;99.90
21570;DHT22;57598;50.888;4.746;2023-04-24T02:59:49;9.10;99.90
21570;DHT22;57598;50.888;4.746;2023-04-24T03:02:16;9.00;99.90
21570;DHT22;57598;50.888;4.746;2023-04-24T03:04:43;9.00;99.90
21570;DHT22;57598;50.888;4.746;2023-04-24T03:07:12;8.90;99.90
21570;DHT22;57598;50.888;4.746;2023-04-24T03:09:40;8.90;99.90
21570;DHT22;57598;50.888;4.746;2023-04-24T03:12:07;8.90;99.90
21570;DHT22;57598;50.888;4.746;2023-04-24T03:14:34;8.90;99.90
21570;DHT22;57598;50.888;4.746;2023-04-24T03:17:01;8.80;99.90
21570;DHT22;57598;50.888;4.746;2023-04-24T03:19:28;8.80;99.90
21570;DHT22;57598;50.888;4.746;2023-04-24T03:21:55;8.90;99.90
21570;DHT22;57598;50.888;4.746;2023-04-24T03:24:28;8.80;99.90
21570;DHT22;57598;50.888;4.746;2023-04-24T03:26:56;8.90;99.90
21570;DHT22;57598;50.888;4.746;2023-04-24T03:29:23;8.80;99.90
21570;DHT22;57598;50.888;4.746;2023-04-24T03:31:50;8.80;99.90
21570;DHT22;57598;50.888;4.746;2023-04-24T03:34:17;8.70;99.90
21570;DHT22;57598;50.888;4.746;2023-04-24T03:36:44;8.80;99.90
21570;DHT22;57598;50.888;4.746;2023-04-24T03:39:13;8.80;99.90
21570;DHT22;57598;50.888;4.746;2023-04-24T03:41:41;8.80;99.90
21570;DHT22;57598;50.888;4.746;2023-04-24T03:44:08;8.70;99.90
21570;DHT22;57598;50.888;4.746;2023-04-24T03:46:35;8.70;99.90
21570;DHT22;57598;50.888;4.746;2023-04-24T03:49:02;8.70;99.90
21570;DHT22;57598;50.888;4.746;2023-04-24T03:51:33;8.60;99.90
21570;DHT22;57598;50.888;4.746;2023-04-24T03:54:14;8.60;99.90
21570;DHT22;57598;50.888;4.746;2023-04-24T03:56:43;8.70;99.90
21570;DHT22;57598;50.888;4.746;2023-04-24T03:59:13;8.60;99.90
21570;DHT22;57598;50.888;4.746;2023-04-24T04:01:58;8.70;99.90
21570;DHT22;57598;50.888;4.746;2023-04-24T04:04:42;8.70;99.90
21570;DHT22;57598;50.888;4.746;2023-04-24T04:10:36;8.70;99.90
21570;DHT22;57598;50.888;4.746;2023-04-24T04:13:05;8.70;99.90
21570;DHT22;57598;50.888;4.746;2023-04-24T04:15:32;8.70;99.90
21570;DHT22;57598;50.888;4.746;2023-04-24T04:17:59;8.70;99.90
21570;DHT22;57598;50.888;4.746;2023-04-24T04:20:26;8.70;99.90
21570;DHT22;57598;50.888;4.746;2023-04-24T04:22:53;8.70;99.90
21570;DHT22;57598;50.888;4.746;2023-04-24T04:25:20;8.70;99.90
21570;DHT22;57598;50.888;4.746;2023-04-24T04:27:48;8.70;99.90
21570;DHT22;57598;50.888;4.746;2023-04-24T04:30:18;8.70;99.90
21570;DHT22;57598;50.888;4.746;2023-04-24T04:32:46;8.70;99.90
21570;DHT22;57598;50.888;4.746;2023-04-24T04:35:13;8.70;99.90
21570;DHT22;57598;50.888;4.746;2023-04-24T04:37:40;8.80;99.90
21570;DHT22;57598;50.888;4.746;2023-04-24T04:40:08;8.80;99.90
21570;DHT22;57598;50.888;4.746;2023-04-24T04:42:37;8.70;99.90
21570;DHT22;57598;50.888;4.746;2023-04-24T04:45:06;8.80;99.90
21570;DHT22;57598;50.888;4.746;2023-04-24T04:47:36;8.80;99.90
21570;DHT22;57598;50.888;4.746;2023-04-24T04:50:04;8.80;99.90
21570;DHT22;57598;50.888;4.746;2023-04-24T04:52:31;8.80;99.90
21570;DHT22;57598;50.888;4.746;2023-04-24T04:54:59;8.80;99.90
21570;DHT22;57598;50.888;4.746;2023-04-24T04:57:28;8.80;99.90
21570;DHT22;57598;50.888;4.746;2023-04-24T04:59:55;8.80;99.90
21570;DHT22;57598;50.888;4.746;2023-04-24T05:02:22;8.80;99.90
21570;DHT22;57598;50.888;4.746;2023-04-24T05:04:51;8.80;99.90
21570;DHT22;57598;50.888;4.746;2023-04-24T05:07:18;8.80;99.90
21570;DHT22;57598;50.888;4.746;2023-04-24T05:09:45;8.90;99.90
21570;DHT22;57598;50.888;4.746;2023-04-24T05:12:12;8.80;99.90
21570;DHT22;57598;50.888;4.746;2023-04-24T05:14:44;8.80;99.90
21570;DHT22;57598;50.888;4.746;2023-04-24T05:17:27;8.70;99.90
21570;DHT22;57598;50.888;4.746;2023-04-24T05:20:20;8.80;99.90
21570;DHT22;57598;50.888;4.746;2023-04-24T05:23:10;8.70;99.90
21570;DHT22;57598;50.888;4.746;2023-04-24T05:29:04;8.70;99.90
21570;DHT22;57598;50.888;4.746;2023-04-24T05:31:32;8.70;99.90
21570;DHT22;57598;50.888;4.746;2023-04-24T05:37:20;8.80;99.90
21570;DHT22;57598;50.888;4.746;2023-04-24T05:39:47;8.80;99.90
21570;DHT22;57598;50.888;4.746;2023-04-24T05:42:14;8.80;99.90
21570;DHT22;57598;50.888;4.746;2023-04-24T05:44:41;8.70;99.90
21570;DHT22;57598;50.888;4.746;2023-04-24T05:47:09;8.70;99.90
21570;DHT22;57598;50.888;4.746;2023-04-24T05:50:16;8.70;99.90
21570;DHT22;57598;50.888;4.746;2023-04-24T05:53:06;8.70;99.90
21570;DHT22;57598;50.888;4.746;2023-04-24T05:56:02;8.70;99.90
21570;DHT22;57598;50.888;4.746;2023-04-24T05:58:36;8.70;99.90
21570;DHT22;57598;50.888;4.746;2023-04-24T06:01:44;8.60;99.90
21570;DHT22;57598;50.888;4.746;2023-04-24T06:04:31;8.70;99.90
21570;DHT22;57598;50.888;4.746;2023-04-24T06:07:29;8.60;99.90
21570;DHT22;57598;50.888;4.746;2023-04-24T06:13:47;8.70;99.90
21570;DHT22;57598;50.888;4.746;2023-04-24T06:16:14;8.60;99.90
21570;DHT22;57598;50.888;4.746;2023-04-24T06:18:42;8.60;99.90
21570;DHT22;57598;50.888;4.746;2023-04-24T06:21:17;8.60;99.90
21570;DHT22;57598;50.888;4.746;2023-04-24T06:24:04;8.60;99.90
21570;DHT22;57598;50.888;4.746;2023-04-24T06:26:35;8.80;99.90
21570;DHT22;57598;50.888;4.746;2023-04-24T06:33:00;8.60;99.90
21570;DHT22;57598;50.888;4.746;2023-04-24T06:42:49;8.70;99.90
21570;DHT22;57598;50.888;4.746;2023-04-24T06:45:27;8.70;99.90
21570;DHT22;57598;50.888;4.746;2023-04-24T06:47:56;8.70;99.90
21570;DHT22;57598;50.888;4.746;2023-04-24T06:51:00;8.70;99.90
21570;DHT22;57598;50.888;4.746;2023-04-24T06:53:29;8.70;99.90
21570;DHT22;57598;50.888;4.746;2023-04-24T06:56:02;8.70;99.90
21570;DHT22;57598;50.888;4.746;2023-04-24T08:12:29;9.20;99.90
21570;DHT22;57598;50.888;4.746;2023-04-24T08:22:43;9.70;99.90
21570;DHT22;57598;50.888;4.746;2023-04-24T08:33:25;9.90;99.90
21570;DHT22;57598;50.888;4.746;2023-04-24T08:36:56;9.80;99.90
21570;DHT22;57598;50.888;4.746;2023-04-24T08:43:22;9.90;99.90
21570;DHT22;57598;50.888;4.746;2023-04-24T16:39:33;13.20;99.90
21570;DHT22;57598;50.888;4.746;2023-04-24T16:42:00;13.50;99.90
21570;DHT22;57598;50.888;4.746;2023-04-24T16:44:27;13.40;99.90
21570;DHT22;57598;50.888;4.746;2023-04-24T16:46:54;13.20;99.90
21570;DHT22;57598;50.888;4.746;2023-04-24T16:49:21;13.20;99.90
21570;DHT22;57598;50.888;4.746;2023-04-24T16:51:49;13.10;99.90
21570;DHT22;57598;50.888;4.746;2023-04-24T16:54:16;13.20;99.40
21570;DHT22;57598;50.888;4.746;2023-04-24T16:56:45;13.00;99.30
21570;DHT22;57598;50.888;4.746;2023-04-24T16:59:12;13.00;99.90
21570;DHT22;57598;50.888;4.746;2023-04-24T17:01:39;12.80;99.90
21570;DHT22;57598;50.888;4.746;2023-04-24T17:04:06;12.70;99.40
21570;DHT22;57598;50.888;4.746;2023-04-24T17:06:33;12.60;99.90
21570;DHT22;57598;50.888;4.746;2023-04-24T17:09:00;12.80;99.90
21570;DHT22;57598;50.888;4.746;2023-04-24T17:11:28;12.90;99.90
21570;DHT22;57598;50.888;4.746;2023-04-24T17:13:57;12.90;99.90
21570;DHT22;57598;50.888;4.746;2023-04-24T17:16:25;12.90;99.90
21570;DHT22;57598;50.888;4.746;2023-04-24T17:18:52;12.80;99.90
21570;DHT22;57598;50.888;4.746;2023-04-24T17:21:19;12.90;99.90
21570;DHT22;57598;50.888;4.746;2023-04-24T17:23:46;13.00;99.90
21570;DHT22;57598;50.888;4.746;2023-04-24T17:26:13;12.90;99.60
21570;DHT22;57598;50.888;4.746;2023-04-24T17:28:40;12.90;99.90
21570;DHT22;57598;50.888;4.746;2023-04-24T17:31:08;13.20;99.50
21570;DHT22;57598;50.888;4.746;2023-04-24T17:33:35;13.00;99.20
21570;DHT22;57598;50.888;4.746;2023-04-24T17:36:02;12.90;99.00
21570;DHT22;57598;50.888;4.746;2023-04-24T17:38:31;12.60;99.30
21570;DHT22;57598;50.888;4.746;2023-04-24T17:40:58;12.60;99.90
21570;DHT22;57598;50.888;4.746;2023-04-24T17:43:26;12.70;99.90
21570;DHT22;57598;50.888;4.746;2023-04-24T17:45:53;12.90;99.90
21570;DHT22;57598;50.888;4.746;2023-04-24T17:48:22;13.00;99.90
21570;DHT22;57598;50.888;4.746;2023-04-24T17:50:50;13.00;99.90
21570;DHT22;57598;50.888;4.746;2023-04-24T17:53:18;12.80;99.90
21570;DHT22;57598;50.888;4.746;2023-04-24T17:55:46;12.40;99.90
21570;DHT22;57598;50.888;4.746;2023-04-24T17:58:13;12.30;99.90
21570;DHT22;57598;50.888;4.746;2023-04-24T18:00:41;12.30;99.90
21570;DHT22;57598;50.888;4.746;2023-04-24T18:03:08;12.40;99.90
21570;DHT22;57598;50.888;4.746;2023-04-24T18:05:37;12.30;99.90
21570;DHT22;57598;50.888;4.746;2023-04-24T18:08:05;12.30;99.90
21570;DHT22;57598;50.888;4.746;2023-04-24T18:10:33;12.20;99.90
21570;DHT22;57598;50.888;4.746;2023-04-24T18:13:01;12.00;99.90
21570;DHT22;57598;50.888;4.746;2023-04-24T18:15:28;11.90;99.90
21570;DHT22;57598;50.888;4.746;2023-04-24T18:17:55;11.80;99.90
21570;DHT22;57598;50.888;4.746;2023-04-24T18:20:22;11.90;99.90
21570;DHT22;57598;50.888;4.746;2023-04-24T18:23:03;11.90;99.90
21570;DHT22;57598;50.888;4.746;2023-04-24T18:25:44;12.00;99.90
21570;DHT22;57598;50.888;4.746;2023-04-24T18:31:29;11.90;99.90
21570;DHT22;57598;50.888;4.746;2023-04-24T18:34:00;11.90;99.90
21570;DHT22;57598;50.888;4.746;2023-04-24T18:36:28;11.80;99.90
21570;DHT22;57598;50.888;4.746;2023-04-24T18:39:02;11.80;99.90
21570;DHT22;57598;50.888;4.746;2023-04-24T18:41:37;11.80;99.90
21570;DHT22;57598;50.888;4.746;2023-04-24T18:44:09;11.90;99.90
21570;DHT22;57598;50.888;4.746;2023-04-24T18:46:40;11.70;99.90
21570;DHT22;57598;50.888;4.746;2023-04-24T18:49:08;11.80;99.90
21570;DHT22;57598;50.888;4.746;2023-04-24T18:51:36;11.70;99.90
21570;DHT22;57598;50.888;4.746;2023-04-24T18:54:10;11.60;99.90
21570;DHT22;57598;50.888;4.746;2023-04-24T18:56:38;11.50;99.90
21570;DHT22;57598;50.888;4.746;2023-04-24T18:59:06;11.50;99.90
21570;DHT22;57598;50.888;4.746;2023-04-24T19:01:34;11.40;99.90
21570;DHT22;57598;50.888;4.746;2023-04-24T19:04:01;11.50;99.90
21570;DHT22;57598;50.888;4.746;2023-04-24T19:06:30;11.60;99.90
21570;DHT22;57598;50.888;4.746;2023-04-24T19:08:58;11.50;99.90
21570;DHT22;57598;50.888;4.746;2023-04-24T19:11:27;11.50;99.90
21570;DHT22;57598;50.888;4.746;2023-04-24T19:13:56;11.30;99.90
21570;DHT22;57598;50.888;4.746;2023-04-24T19:16:27;11.10;99.90
21570;DHT22;57598;50.888;4.746;2023-04-24T19:18:55;11.10;99.90
21570;DHT22;57598;50.888;4.746;2023-04-24T19:21:28;11.00;99.90
21570;DHT22;57598;50.888;4.746;2023-04-24T19:23:59;11.00;99.90
21570;DHT22;57598;50.888;4.746;2023-04-24T19:26:28;11.00;99.90
21570;DHT22;57598;50.888;4.746;2023-04-24T19:28:56;11.00;99.90
21570;DHT22;57598;50.888;4.746;2023-04-24T19:31:25;11.20;99.90
21570;DHT22;57598;50.888;4.746;2023-04-24T19:33:53;11.10;99.90
21570;DHT22;57598;50.888;4.746;2023-04-24T19:36:21;11.10;99.90
21570;DHT22;57598;50.888;4.746;2023-04-24T19:38:49;10.90;99.90
21570;DHT22;57598;50.888;4.746;2023-04-24T19:41:16;11.00;99.90
21570;DHT22;57598;50.888;4.746;2023-04-24T19:43:45;10.90;99.90
21570;DHT22;57598;50.888;4.746;2023-04-24T19:46:14;11.00;99.90
21570;DHT22;57598;50.888;4.746;2023-04-24T19:48:41;10.90;99.90
21570;DHT22;57598;50.888;4.746;2023-04-24T19:51:12;11.00;99.90
21570;DHT22;57598;50.888;4.746;2023-04-24T19:53:39;10.90;99.90
21570;DHT22;57598;50.888;4.746;2023-04-24T19:56:08;10.90;99.90
21570;DHT22;57598;50.888;4.746;2023-04-24T19:58:36;10.90;99.90
21570;DHT22;57598;50.888;4.746;2023-04-24T20:01:05;10.90;99.90
21570;DHT22;57598;50.888;4.746;2023-04-24T20:03:33;10.80;99.90
21570;DHT22;57598;50.888;4.746;2023-04-24T20:06:00;10.80;99.90
21570;DHT22;57598;50.888;4.746;2023-04-24T20:08:28;10.70;99.90
21570;DHT22;57598;50.888;4.746;2023-04-24T20:10:57;10.60;99.90
21570;DHT22;57598;50.888;4.746;2023-04-24T20:13:32;10.60;99.90
21570;DHT22;57598;50.888;4.746;2023-04-24T20:16:23;10.60;99.90
21570;DHT22;57598;50.888;4.746;2023-04-24T20:18:56;10.70;99.90
21570;DHT22;57598;50.888;4.746;2023-04-24T20:21:23;10.70;99.90
21570;DHT22;57598;50.888;4.746;2023-04-24T20:24:13;10.60;99.90
21570;DHT22;57598;50.888;4.746;2023-04-24T20:26:56;10.60;99.90
21570;DHT22;57598;50.888;4.746;2023-04-24T20:29:23;10.60;99.90
21570;DHT22;57598;50.888;4.746;2023-04-24T20:31:53;10.50;99.90
21570;DHT22;57598;50.888;4.746;2023-04-24T20:34:21;10.50;99.90
21570;DHT22;57598;50.888;4.746;2023-04-24T20:36:48;10.50;99.90
21570;DHT22;57598;50.888;4.746;2023-04-24T20:39:18;10.40;99.90
21570;DHT22;57598;50.888;4.746;2023-04-24T20:41:45;10.30;99.90
21570;DHT22;57598;50.888;4.746;2023-04-24T20:44:13;10.30;99.90
21570;DHT22;57598;50.888;4.746;2023-04-24T20:46:40;10.30;99.90
21570;DHT22;57598;50.888;4.746;2023-04-24T20:49:23;10.30;99.90
21570;DHT22;57598;50.888;4.746;2023-04-24T20:51:50;10.40;99.90
21570;DHT22;57598;50.888;4.746;2023-04-24T20:54:18;10.30;99.90
21570;DHT22;57598;50.888;4.746;2023-04-24T20:56:45;10.40;99.90
21570;DHT22;57598;50.888;4.746;2023-04-24T20:59:12;10.40;99.90
21570;DHT22;57598;50.888;4.746;2023-04-24T21:01:39;10.30;99.90
21570;DHT22;57598;50.888;4.746;2023-04-24T21:04:10;10.20;99.90
21570;DHT22;57598;50.888;4.746;2023-04-24T21:06:37;10.30;99.90
21570;DHT22;57598;50.888;4.746;2023-04-24T21:09:04;10.20;99.90
21570;DHT22;57598;50.888;4.746;2023-04-24T21:11:31;10.20;99.90
21570;DHT22;57598;50.888;4.746;2023-04-24T21:13:58;10.20;99.90
21570;DHT22;57598;50.888;4.746;2023-04-24T21:16:25;10.20;99.90
21570;DHT22;57598;50.888;4.746;2023-04-24T21:18:52;10.30;99.90
21570;DHT22;57598;50.888;4.746;2023-04-24T21:21:21;10.20;99.90
21570;DHT22;57598;50.888;4.746;2023-04-24T21:23:49;10.20;99.90
21570;DHT22;57598;50.888;4.746;2023-04-24T21:26:16;10.20;99.90
21570;DHT22;57598;50.888;4.746;2023-04-24T21:28:43;10.30;99.90
21570;DHT22;57598;50.888;4.746;2023-04-24T21:31:10;10.30;99.90
21570;DHT22;57598;50.888;4.746;2023-04-24T21:33:38;10.30;99.90
21570;DHT22;57598;50.888;4.746;2023-04-24T21:36:05;10.30;99.90
21570;DHT22;57598;50.888;4.746;2023-04-24T21:38:33;10.30;99.90
21570;DHT22;57598;50.888;4.746;2023-04-24T21:41:01;10.30;99.90
21570;DHT22;57598;50.888;4.746;2023-04-24T21:43:28;10.20;99.90
21570;DHT22;57598;50.888;4.746;2023-04-24T21:45:55;10.20;99.90
21570;DHT22;57598;50.888;4.746;2023-04-24T21:48:22;10.20;99.90
21570;DHT22;57598;50.888;4.746;2023-04-24T21:50:49;10.20;99.90
21570;DHT22;57598;50.888;4.746;2023-04-24T21:53:16;10.20;99.90
21570;DHT22;57598;50.888;4.746;2023-04-24T21:55:45;10.20;99.90
21570;DHT22;57598;50.888;4.746;2023-04-24T21:58:12;10.20;99.90
21570;DHT22;57598;50.888;4.746;2023-04-24T22:00:39;10.30;99.90
21570;DHT22;57598;50.888;4.746;2023-04-24T22:03:06;10.40;99.90
21570;DHT22;57598;50.888;4.746;2023-04-24T22:05:33;10.30;99.90
21570;DHT22;57598;50.888;4.746;2023-04-24T22:08:00;10.30;99.90
21570;DHT22;57598;50.888;4.746;2023-04-24T22:10:27;10.20;99.90
21570;DHT22;57598;50.888;4.746;2023-04-24T22:12:56;10.20;99.90
21570;DHT22;57598;50.888;4.746;2023-04-24T22:15:23;10.20;99.90
21570;DHT22;57598;50.888;4.746;2023-04-24T22:17:50;10.10;99.90
21570;DHT22;57598;50.888;4.746;2023-04-24T22:20:18;10.00;99.90
21570;DHT22;57598;50.888;4.746;2023-04-24T22:22:46;10.00;99.90
21570;DHT22;57598;50.888;4.746;2023-04-24T22:25:13;10.00;99.90
21570;DHT22;57598;50.888;4.746;2023-04-24T22:27:42;10.00;99.90
21570;DHT22;57598;50.888;4.746;2023-04-24T22:30:11;10.00;99.90
21570;DHT22;57598;50.888;4.746;2023-04-24T22:32:39;10.10;99.90
21570;DHT22;57598;50.888;4.746;2023-04-24T22:35:07;10.10;99.90
21570;DHT22;57598;50.888;4.746;2023-04-24T22:37:34;10.00;99.90
21570;DHT22;57598;50.888;4.746;2023-04-24T22:40:02;10.00;99.90
21570;DHT22;57598;50.888;4.746;2023-04-24T22:42:30;10.00;99.90
21570;DHT22;57598;50.888;4.746;2023-04-24T22:44:57;10.00;99.90
21570;DHT22;57598;50.888;4.746;2023-04-24T22:47:25;9.90;99.90
21570;DHT22;57598;50.888;4.746;2023-04-24T22:49:52;9.80;99.90
21570;DHT22;57598;50.888;4.746;2023-04-24T22:52:22;9.80;99.90
21570;DHT22;57598;50.888;4.746;2023-04-24T22:54:49;9.70;99.90
21570;DHT22;57598;50.888;4.746;2023-04-24T22:57:16;9.70;99.90
21570;DHT22;57598;50.888;4.746;2023-04-24T22:59:45;9.70;99.90
21570;DHT22;57598;50.888;4.746;2023-04-24T23:02:12;9.70;99.90
21570;DHT22;57598;50.888;4.746;2023-04-24T23:04:42;9.80;99.90
21570;DHT22;57598;50.888;4.746;2023-04-24T23:07:09;9.70;99.90
21570;DHT22;57598;50.888;4.746;2023-04-24T23:09:37;9.70;99.90
21570;DHT22;57598;50.888;4.746;2023-04-24T23:12:07;9.70;99.90
21570;DHT22;57598;50.888;4.746;2023-04-24T23:14:38;9.60;99.90
21570;DHT22;57598;50.888;4.746;2023-04-24T23:17:08;9.50;99.90
21570;DHT22;57598;50.888;4.746;2023-04-24T23:19:35;9.50;99.90
21570;DHT22;57598;50.888;4.746;2023-04-24T23:22:07;9.60;99.90
21570;DHT22;57598;50.888;4.746;2023-04-24T23:24:34;9.50;99.90
21570;DHT22;57598;50.888;4.746;2023-04-24T23:27:02;9.50;99.90
21570;DHT22;57598;50.888;4.746;2023-04-24T23:29:29;9.30;99.90
21570;DHT22;57598;50.888;4.746;2023-04-24T23:31:58;9.30;99.90
21570;DHT22;57598;50.888;4.746;2023-04-24T23:34:26;9.20;99.90
21570;DHT22;57598;50.888;4.746;2023-04-24T23:36:54;9.40;99.90
21570;DHT22;57598;50.888;4.746;2023-04-24T23:39:23;9.40;99.90
21570;DHT22;57598;50.888;4.746;2023-04-24T23:41:50;9.30;99.90
21570;DHT22;57598;50.888;4.746;2023-04-24T23:44:18;9.40;99.90
21570;DHT22;57598;50.888;4.746;2023-04-24T23:46:45;9.40;99.90
21570;DHT22;57598;50.888;4.746;2023-04-24T23:49:12;9.40;99.90
21570;DHT22;57598;50.888;4.746;2023-04-24T23:51:39;9.50;99.90
21570;DHT22;57598;50.888;4.746;2023-04-24T23:54:06;9.40;99.90
21570;DHT22;57598;50.888;4.746;2023-04-24T23:56:35;9.30;99.90
21570;DHT22;57598;50.888;4.746;2023-04-24T23:59:02;9.30;99.90
